createdAt,value
2022-08-23T00:02:25.255Z,99005.19
2022-08-23T00:05:03.674Z,98998.69
2022-08-23T00:07:38.149Z,99002.19
2022-08-23T00:10:05.112Z,99003.53
2022-08-23T00:12:31.598Z,99003.88
2022-08-23T00:14:58.407Z,98996.84
2022-08-23T00:17:31.172Z,99004.56
2022-08-23T00:20:02.190Z,99001.03
2022-08-23T00:22:28.616Z,98999.50
2022-08-23T00:24:55.046Z,98997.50
2022-08-23T00:27:21.511Z,98997.50
2022-08-23T00:29:52.352Z,98995.84
2022-08-23T00:32:20.996Z,98994.84
2022-08-23T00:34:47.740Z,98994.47
2022-08-23T00:37:14.584Z,98993.47
2022-08-23T00:39:41.051Z,98989.81
2022-08-23T00:42:30.607Z,98988.13
2022-08-23T00:45:17.413Z,98985.13
2022-08-23T00:47:44.927Z,98980.75
2022-08-23T00:50:24.489Z,98980.75
2022-08-23T00:53:12.945Z,98986.47
2022-08-23T00:55:41.160Z,98979.97
2022-08-23T00:58:08.125Z,98975.91
2022-08-23T01:00:35.016Z,98982.75
2022-08-23T01:03:02.718Z,98985.09
2022-08-23T01:05:33.136Z,98989.13
2022-08-23T01:08:00.365Z,98983.41
2022-08-23T01:10:30.031Z,98983.09
2022-08-23T01:13:03.189Z,98983.44
2022-08-23T01:15:33.029Z,98990.28
2022-08-23T01:18:04.920Z,99000.00
2022-08-23T01:20:36.207Z,99001.16
2022-08-23T01:23:07.195Z,99005.16
2022-08-23T01:25:33.956Z,99002.97
2022-08-23T01:28:00.800Z,98999.09
2022-08-23T01:30:30.374Z,99009.47
2022-08-23T01:32:58.350Z,99007.28
2022-08-23T01:35:31.127Z,99008.78
2022-08-23T01:37:57.864Z,99014.94
2022-08-23T01:40:24.374Z,99007.41
2022-08-23T01:42:50.820Z,99010.41
2022-08-23T01:45:17.353Z,99004.69
2022-08-23T01:47:43.811Z,99007.53
2022-08-23T01:50:12.867Z,99009.56
2022-08-23T01:52:47.229Z,99012.69
2022-08-23T01:55:14.241Z,99016.19
2022-08-23T01:57:41.365Z,99018.19
2022-08-23T02:00:08.205Z,99020.63
2022-08-23T02:02:35.139Z,99021.59
2022-08-23T02:05:01.759Z,99020.25
2022-08-23T02:07:28.718Z,99027.75
2022-08-23T02:09:55.212Z,99022.88
2022-08-23T02:12:21.788Z,99022.38
2022-08-23T02:14:48.435Z,99015.81
2022-08-23T02:17:16.299Z,99011.78
2022-08-23T02:19:43.971Z,99018.31
2022-08-23T02:22:11.191Z,99018.81
2022-08-23T02:24:42.205Z,99028.44
2022-08-23T02:27:09.144Z,99025.41
2022-08-23T02:29:39.501Z,99037.03
2022-08-23T02:32:06.300Z,99027.34
2022-08-23T02:34:33.470Z,99031.69
2022-08-23T02:36:59.924Z,99032.03
2022-08-23T02:39:26.940Z,99035.69
2022-08-23T02:41:53.617Z,99039.50
2022-08-23T02:44:20.227Z,99034.63
2022-08-23T02:46:47.017Z,99041.78
2022-08-23T02:49:14.369Z,99041.28
2022-08-23T02:51:41.577Z,99034.56
2022-08-23T02:54:08.080Z,99038.69
2022-08-23T02:56:34.942Z,99040.69
2022-08-23T02:59:01.989Z,99045.50
2022-08-23T03:01:30.029Z,99044.44
2022-08-23T03:03:57.495Z,99034.72
2022-08-23T03:06:26.308Z,99041.09
2022-08-23T03:08:54.340Z,99044.06
2022-08-23T03:11:22.226Z,99043.69
2022-08-23T03:13:49.755Z,99043.97
2022-08-23T03:16:16.475Z,99039.25
2022-08-23T03:18:43.276Z,99042.38
2022-08-23T03:21:10.336Z,99043.81
2022-08-23T03:23:37.560Z,99035.41
2022-08-23T03:26:05.268Z,99050.72
2022-08-23T03:28:33.209Z,99049.22
2022-08-23T03:30:59.663Z,99042.63
2022-08-23T03:33:26.075Z,99042.97
2022-08-23T03:35:52.555Z,99044.25
2022-08-23T03:38:19.885Z,99049.88
2022-08-23T03:40:46.343Z,99048.50
2022-08-23T03:43:14.657Z,99053.00
2022-08-23T03:45:41.080Z,99050.81
2022-08-23T03:48:07.553Z,99045.75
2022-08-23T03:50:34.069Z,99051.41
2022-08-23T03:53:00.489Z,99060.38
2022-08-23T03:55:26.916Z,99057.00
2022-08-23T03:57:54.186Z,99053.66
2022-08-23T04:00:20.777Z,99061.56
2022-08-23T04:02:47.324Z,99055.69
2022-08-23T04:05:13.752Z,99069.16
2022-08-23T04:07:40.320Z,99074.78
2022-08-23T04:10:08.109Z,99074.69
2022-08-23T04:12:34.709Z,99075.66
2022-08-23T04:15:02.638Z,99071.75
2022-08-23T04:17:32.477Z,99074.59
2022-08-23T04:19:59.394Z,99081.19
2022-08-23T04:22:25.849Z,99078.13
2022-08-23T04:24:52.331Z,99080.09
2022-08-23T04:27:18.880Z,99080.78
2022-08-23T04:29:45.497Z,99080.09
2022-08-23T04:32:12.516Z,99079.41
2022-08-23T04:34:40.187Z,99079.69
2022-08-23T04:37:09.185Z,99080.00
2022-08-23T04:39:56.511Z,99078.16
2022-08-23T04:42:23.482Z,99087.28
2022-08-23T04:44:50.351Z,99092.59
2022-08-23T04:47:17.811Z,99089.25
2022-08-23T04:49:44.260Z,99092.88
2022-08-23T04:52:11.356Z,99095.53
2022-08-23T04:54:37.937Z,99104.38
2022-08-23T04:57:04.419Z,99099.22
2022-08-23T04:59:30.840Z,99109.03
2022-08-23T05:01:57.560Z,99103.00
2022-08-23T05:04:24.006Z,99114.09
2022-08-23T05:06:52.126Z,99111.69
2022-08-23T05:09:20.796Z,99111.84
2022-08-23T05:11:47.420Z,99120.41
2022-08-23T05:14:13.916Z,99115.59
2022-08-23T05:16:40.370Z,99116.19
2022-08-23T05:19:06.824Z,99114.19
2022-08-23T05:21:33.383Z,99114.75
2022-08-23T05:24:00.400Z,99120.81
2022-08-23T05:26:30.194Z,99126.25
2022-08-23T05:28:56.628Z,99125.41
2022-08-23T05:31:24.433Z,99121.78
2022-08-23T05:33:51.385Z,99126.34
2022-08-23T05:36:18.694Z,99129.47
2022-08-23T05:38:47.090Z,99126.50
2022-08-23T05:41:13.935Z,99128.72
2022-08-23T05:43:40.959Z,99127.31
2022-08-23T05:46:07.409Z,99129.53
2022-08-23T05:48:40.982Z,99137.78
2022-08-23T05:51:12.799Z,99140.72
2022-08-23T05:53:39.573Z,99147.94
2022-08-23T05:56:29.053Z,99147.41
2022-08-23T05:59:00.953Z,99141.16
2022-08-23T06:01:28.380Z,99148.13
2022-08-23T06:03:54.937Z,99150.75
2022-08-23T06:06:21.994Z,99152.94
2022-08-23T06:08:48.729Z,99152.28
2022-08-23T06:11:19.866Z,99149.84
2022-08-23T06:13:48.558Z,99146.81
2022-08-23T06:16:16.476Z,99151.84
2022-08-23T06:18:44.484Z,99165.66
2022-08-23T06:21:12.108Z,99165.72
2022-08-23T06:23:39.062Z,99149.06
2022-08-23T06:26:35.081Z,99156.31
2022-08-23T06:29:02.935Z,99155.06
2022-08-23T06:31:48.145Z,99159.28
2022-08-23T06:34:14.558Z,99160.75
2022-08-23T06:36:40.989Z,99157.50
2022-08-23T06:39:08.585Z,99151.22
2022-08-23T06:41:35.308Z,99151.03
2022-08-23T06:44:01.784Z,99150.41
2022-08-23T06:46:29.284Z,99150.88
2022-08-23T06:48:56.372Z,99143.88
2022-08-23T06:51:29.126Z,99137.31
2022-08-23T06:53:56.991Z,99137.28
2022-08-23T06:56:27.081Z,99139.97
2022-08-23T06:58:53.703Z,99142.03
2022-08-23T07:01:44.496Z,99139.75
2022-08-23T07:04:11.755Z,99141.81
2022-08-23T07:06:38.295Z,99140.56
2022-08-23T07:09:05.391Z,99135.19
2022-08-23T07:11:33.017Z,99134.16
2022-08-23T07:14:00.944Z,99134.16
2022-08-23T07:16:38.396Z,99131.59
2022-08-23T07:19:05.341Z,99132.00
2022-08-23T07:21:31.986Z,99130.28
2022-08-23T07:23:58.526Z,99132.44
2022-08-23T07:26:25.384Z,99133.53
2022-08-23T07:28:51.850Z,99130.28
2022-08-23T07:31:18.300Z,99130.03
2022-08-23T07:33:45.239Z,99125.69
2022-08-23T07:36:14.067Z,99126.28
2022-08-23T07:38:40.511Z,99125.13
2022-08-23T07:41:06.984Z,99123.38
2022-08-23T07:43:34.295Z,99126.72
2022-08-23T07:46:01.419Z,99128.00
2022-08-23T07:48:52.451Z,99135.97
2022-08-23T07:51:17.493Z,99137.34
2022-08-23T07:53:46.279Z,99134.28
2022-08-23T07:56:13.839Z,99137.53
2022-08-23T07:58:40.694Z,99127.38
2022-08-23T08:01:18.260Z,99131.56
2022-08-23T08:03:46.392Z,99133.66
2022-08-23T08:06:14.670Z,99124.53
2022-08-23T08:08:41.952Z,99133.25
2022-08-23T08:11:08.961Z,99135.94
2022-08-23T08:13:38.168Z,99141.34
2022-08-23T08:16:04.925Z,99142.41
2022-08-23T08:18:31.469Z,99141.19
2022-08-23T08:20:57.959Z,99141.59
2022-08-23T08:23:24.480Z,99133.66
2022-08-23T08:25:58.708Z,99146.34
2022-08-23T08:28:25.158Z,99144.06
2022-08-23T08:30:51.601Z,99145.94
2022-08-23T08:33:18.078Z,99142.59
2022-08-23T08:35:47.224Z,99136.16
2022-08-23T08:38:24.688Z,99137.81
2022-08-23T08:41:21.245Z,99141.56
2022-08-23T08:44:07.950Z,99141.13
2022-08-23T08:46:54.483Z,99142.75
2022-08-23T08:49:20.897Z,99149.63
2022-08-23T08:51:51.016Z,99143.59
2022-08-23T08:54:19.780Z,99145.88
2022-08-23T08:56:49.754Z,99154.03
2022-08-23T08:59:20.772Z,99160.25
2022-08-23T09:01:48.695Z,99157.31
2022-08-23T09:04:15.404Z,99147.34
2022-08-23T09:06:49.594Z,99154.03
2022-08-23T09:09:25.996Z,99149.66
2022-08-23T09:12:08.456Z,99156.50
2022-08-23T09:14:40.484Z,99149.88
2022-08-23T09:17:28.338Z,99146.09
2022-08-23T09:19:58.408Z,99143.41
2022-08-23T09:22:30.585Z,99145.69
2022-08-23T09:24:58.162Z,99140.72
2022-08-23T09:27:24.615Z,99143.00
2022-08-23T09:29:53.120Z,99128.63
2022-08-23T09:32:31.181Z,99136.34
2022-08-23T09:35:18.156Z,99136.34
2022-08-23T09:37:51.616Z,99134.91
2022-08-23T09:40:20.569Z,99127.81
2022-08-23T09:43:03.389Z,99126.13
2022-08-23T09:45:35.182Z,99121.56
2022-08-23T09:48:02.290Z,99122.63
2022-08-23T09:50:31.154Z,99111.19
2022-08-23T09:52:59.324Z,99112.84
2022-08-23T09:55:33.843Z,99119.06
2022-08-23T09:58:01.870Z,99118.22
2022-08-23T10:00:34.165Z,99109.25
2022-08-23T10:03:19.841Z,99111.16
2022-08-23T10:05:49.405Z,99106.09
2022-08-23T10:08:22.391Z,99111.72
2022-08-23T10:10:51.729Z,99114.03
2022-08-23T10:13:18.243Z,99109.88
2022-08-23T10:16:02.686Z,99112.38
2022-08-23T10:18:44.312Z,99110.69
2022-08-23T10:21:20.975Z,99104.22
2022-08-23T10:23:53.246Z,99109.59
2022-08-23T10:26:24.055Z,99103.94
2022-08-23T10:29:27.121Z,99103.06
2022-08-23T10:31:56.808Z,99103.41
2022-08-23T10:34:40.970Z,99096.28
2022-08-23T10:37:23.503Z,99091.41
2022-08-23T10:39:52.868Z,99094.50
2022-08-23T10:42:29.778Z,99091.59
2022-08-23T10:45:14.149Z,99086.59
2022-08-23T10:48:03.708Z,99088.34
2022-08-23T10:50:37.521Z,99090.38
2022-08-23T10:53:17.891Z,99091.50
2022-08-23T10:56:05.958Z,99095.50
2022-08-23T10:58:35.044Z,99096.53
2022-08-23T11:01:05.002Z,99081.38
2022-08-23T11:03:57.957Z,99084.34
2022-08-23T11:06:36.665Z,99080.38
2022-08-23T11:09:03.161Z,99080.09
2022-08-23T11:11:47.742Z,99076.16
2022-08-23T11:14:32.203Z,99074.41
2022-08-23T11:17:01.079Z,99079.22
2022-08-23T11:19:46.011Z,99082.53
2022-08-23T11:22:14.125Z,99080.81
2022-08-23T11:24:54.357Z,99085.78
2022-08-23T11:27:30.096Z,99072.34
2022-08-23T11:29:56.649Z,99078.94
2022-08-23T11:32:30.273Z,99076.56
2022-08-23T11:35:12.155Z,99071.63
2022-08-23T11:37:49.317Z,99071.34
2022-08-23T11:40:35.808Z,99081.16
2022-08-23T11:43:06.148Z,99079.22
2022-08-23T11:45:35.801Z,99065.94
2022-08-23T11:48:13.354Z,99057.81
2022-08-23T11:50:59.661Z,99065.22
2022-08-23T11:53:26.233Z,99048.25
2022-08-23T11:55:52.628Z,99055.59
2022-08-23T11:58:54.678Z,99056.41
2022-08-23T12:01:31.474Z,99053.56
2022-08-23T12:04:09.345Z,99041.72
2022-08-23T12:06:41.945Z,99036.03
2022-08-23T12:09:20.583Z,99043.47
2022-08-23T12:11:56.265Z,99048.09
2022-08-23T12:14:31.963Z,99043.16
2022-08-23T12:16:59.680Z,99042.81
2022-08-23T12:19:39.970Z,99041.59
2022-08-23T12:22:09.613Z,99042.06
2022-08-23T12:24:43.841Z,99036.13
2022-08-23T12:27:33.207Z,99029.22
2022-08-23T12:30:10.937Z,99026.97
2022-08-23T12:32:56.107Z,99023.25
2022-08-23T12:35:35.451Z,99030.22
2022-08-23T12:38:08.275Z,99030.00
2022-08-23T12:40:42.683Z,99032.25
2022-08-23T12:43:10.868Z,99028.47
2022-08-23T12:45:46.513Z,99039.03
2022-08-23T12:48:14.472Z,99026.66
2022-08-23T12:50:43.686Z,99026.66
2022-08-23T12:53:12.896Z,99033.06
2022-08-23T12:55:51.315Z,99024.81
2022-08-23T12:58:29.758Z,99027.06
2022-08-23T13:01:00.130Z,99036.66
2022-08-23T13:03:44.515Z,99025.13
2022-08-23T13:06:15.420Z,99025.75
2022-08-23T13:08:41.854Z,99035.09
2022-08-23T13:11:09.457Z,99020.31
2022-08-23T13:13:38.206Z,99021.66
2022-08-23T13:16:27.091Z,99010.91
2022-08-23T13:18:54.655Z,99008.41
2022-08-23T13:21:23.921Z,99007.13
2022-08-23T13:23:51.507Z,99004.34
2022-08-23T13:26:39.375Z,99006.47
2022-08-23T13:29:12.144Z,99014.44
2022-08-23T13:31:52.465Z,99003.56
2022-08-23T13:34:35.818Z,99011.75
2022-08-23T13:37:04.365Z,99002.03
2022-08-23T13:39:31.723Z,99007.66
2022-08-23T13:41:58.226Z,98998.88
2022-08-23T13:44:25.438Z,99000.50
2022-08-23T13:46:51.954Z,99001.59
2022-08-23T13:49:24.612Z,99000.97
2022-08-23T13:52:18.631Z,98997.28
2022-08-23T13:54:51.317Z,98991.09
2022-08-23T13:57:19.749Z,98993.22
2022-08-23T13:59:55.044Z,98999.97
2022-08-23T14:02:22.544Z,99001.59
2022-08-23T14:04:49.240Z,98991.69
2022-08-23T14:07:16.408Z,98991.69
2022-08-23T14:09:43.107Z,98992.19
2022-08-23T14:12:21.244Z,98988.38
2022-08-23T14:14:48.153Z,98982.22
2022-08-23T14:17:16.666Z,98980.94
2022-08-23T14:22:33.216Z,98987.31
2022-08-23T14:24:59.678Z,98978.50
2022-08-23T14:27:26.161Z,98983.97
2022-08-23T14:29:52.662Z,98977.13
2022-08-23T14:32:19.108Z,98983.69
2022-08-23T14:34:45.594Z,98982.69
2022-08-23T14:39:58.809Z,98980.06
2022-08-23T14:42:25.323Z,98980.34
2022-08-23T14:44:51.856Z,98974.09
2022-08-23T14:47:18.781Z,98970.38
2022-08-23T14:49:45.323Z,98972.84
2022-08-23T14:52:13.407Z,98986.03
2022-08-23T14:54:39.942Z,98985.53
2022-08-23T14:57:06.664Z,98981.34
2022-08-23T14:59:33.299Z,98985.66
2022-08-23T15:01:59.914Z,98993.34
2022-08-23T15:04:34.385Z,99000.34
2022-08-23T15:07:17.184Z,98997.81
2022-08-23T15:09:44.777Z,99001.63
2022-08-23T15:14:57.737Z,98993.38
2022-08-23T15:17:28.746Z,98991.81
2022-08-23T15:19:57.572Z,98985.09
2022-08-23T15:22:24.125Z,98992.31
2022-08-23T15:24:52.498Z,98994.22
2022-08-23T15:27:19.284Z,98991.94
2022-08-23T15:29:45.890Z,98989.19
2022-08-23T15:32:12.499Z,98990.75
2022-08-23T15:34:40.097Z,98989.00
2022-08-23T15:37:12.477Z,98985.69
2022-08-23T15:39:38.928Z,98994.38
2022-08-23T15:42:05.770Z,98999.78
2022-08-23T15:44:32.225Z,98992.16
2022-08-23T15:46:58.766Z,98992.19
2022-08-23T15:49:27.881Z,98991.31
2022-08-23T15:51:54.351Z,98988.50
2022-08-23T15:54:20.821Z,98994.09
2022-08-23T15:56:49.759Z,98992.09
2022-08-23T15:59:17.470Z,98990.50
2022-08-23T16:01:46.290Z,98998.06
2022-08-23T16:04:12.805Z,98993.34
2022-08-23T16:06:40.167Z,98987.81
2022-08-23T16:09:19.284Z,98992.16
2022-08-23T16:11:45.805Z,98991.34
2022-08-23T16:14:12.551Z,98991.75
2022-08-23T16:16:39.935Z,98992.25
2022-08-23T16:19:07.355Z,98998.63
2022-08-23T16:21:35.828Z,98996.84
2022-08-23T16:24:02.416Z,98991.75
2022-08-23T16:26:34.501Z,98994.59
2022-08-23T16:29:01.515Z,98992.09
2022-08-23T16:31:38.252Z,98986.66
2022-08-23T16:34:07.943Z,98996.50
2022-08-23T16:36:34.520Z,98994.00
2022-08-23T16:39:01.069Z,98991.75
2022-08-23T16:41:27.614Z,99012.13
2022-08-23T16:43:54.065Z,98999.69
2022-08-23T16:46:21.954Z,99014.72
2022-08-23T16:48:48.493Z,99008.56
2022-08-23T16:51:14.970Z,99003.41
2022-08-23T16:53:41.413Z,99012.34
2022-08-23T16:56:11.418Z,99013.81
2022-08-23T16:58:37.904Z,99019.25
2022-08-23T17:01:04.845Z,99016.16
2022-08-23T17:03:31.340Z,99019.44
2022-08-23T17:05:57.803Z,99018.16
2022-08-23T17:08:24.307Z,99018.47
2022-08-23T17:10:51.698Z,99021.31
2022-08-23T17:13:18.715Z,99024.38
2022-08-23T17:15:45.253Z,99016.88
2022-08-23T17:18:11.955Z,99022.94
2022-08-23T17:20:39.355Z,99030.66
2022-08-23T17:23:06.519Z,99023.41
2022-08-23T17:25:34.026Z,99029.59
2022-08-23T17:28:00.533Z,99027.50
2022-08-23T17:30:28.325Z,99033.22
2022-08-23T17:32:55.512Z,99030.84
2022-08-23T17:35:24.144Z,99035.44
2022-08-23T17:37:50.641Z,99036.44
2022-08-23T17:40:21.395Z,99041.78
2022-08-23T17:42:48.199Z,99039.72
2022-08-23T17:45:15.484Z,99040.00
2022-08-23T17:47:42.018Z,99051.53
2022-08-23T17:50:09.251Z,99046.00
2022-08-23T17:52:35.766Z,99043.13
2022-08-23T17:55:02.297Z,99044.25
2022-08-23T17:57:28.822Z,99058.34
2022-08-23T17:59:58.213Z,99054.56
2022-08-23T18:02:24.670Z,99069.50
2022-08-23T18:04:51.204Z,99054.31
2022-08-23T18:07:18.865Z,99064.97
2022-08-23T18:09:48.555Z,99064.41
2022-08-23T18:12:15.426Z,99065.94
2022-08-23T18:14:41.954Z,99069.13
2022-08-23T18:17:08.431Z,99066.84
2022-08-23T18:19:35.054Z,99067.34
2022-08-23T18:22:02.619Z,99070.50
2022-08-23T18:24:29.299Z,99073.28
2022-08-23T18:27:15.002Z,99079.34
2022-08-23T18:29:46.190Z,99077.91
2022-08-23T18:32:17.952Z,99081.22
2022-08-23T18:34:44.467Z,99086.06
2022-08-23T18:37:11.306Z,99087.78
2022-08-23T18:39:37.752Z,99091.13
2022-08-23T18:42:05.214Z,99084.47
2022-08-23T18:44:31.759Z,99094.47
2022-08-23T18:46:58.266Z,99103.25
2022-08-23T18:49:24.796Z,99093.69
2022-08-23T18:51:51.310Z,99102.41
2022-08-23T18:54:17.781Z,99100.75
2022-08-23T18:56:44.397Z,99113.66
2022-08-23T18:59:10.959Z,99113.66
2022-08-23T19:01:40.889Z,99114.91
2022-08-23T19:04:08.417Z,99118.03
2022-08-23T19:06:37.842Z,99118.22
2022-08-23T19:09:05.309Z,99131.13
2022-08-23T19:11:32.733Z,99132.97
2022-08-23T19:16:33.654Z,99130.28
2022-08-23T19:19:00.742Z,99140.25
2022-08-23T19:21:27.294Z,99140.66
2022-08-23T19:23:55.468Z,99147.03
2022-08-23T19:26:23.920Z,99148.50
2022-08-23T19:28:50.371Z,99146.78
2022-08-23T19:31:17.271Z,99155.91
2022-08-23T19:33:44.027Z,99149.88
2022-08-23T19:36:23.794Z,99156.50
2022-08-23T19:38:57.152Z,99155.59
2022-08-23T19:41:23.666Z,99162.44
2022-08-23T19:43:50.142Z,99163.66
2022-08-23T19:46:16.748Z,99167.81
2022-08-23T19:48:45.435Z,99168.00
2022-08-23T19:51:17.237Z,99167.81
2022-08-23T19:54:04.014Z,99167.38
2022-08-23T19:56:39.236Z,99164.69
2022-08-23T19:59:08.620Z,99175.25
2022-08-23T20:01:35.714Z,99167.31
2022-08-23T20:04:02.683Z,99175.34
2022-08-23T20:06:31.711Z,99175.53
2022-08-23T20:08:58.498Z,99179.00
2022-08-23T20:11:24.914Z,99179.66
2022-08-23T20:13:53.730Z,99176.72
2022-08-23T20:16:20.517Z,99182.50
2022-08-23T20:18:47.438Z,99179.09
2022-08-23T20:21:13.961Z,99188.44
2022-08-23T20:24:03.589Z,99203.16
2022-08-23T20:26:34.918Z,99198.94
2022-08-23T20:29:02.133Z,99191.63
2022-08-23T20:31:30.353Z,99193.63
2022-08-23T20:33:56.881Z,99192.59
2022-08-23T20:36:24.697Z,99186.28
2022-08-23T20:38:51.487Z,99201.59
2022-08-23T20:41:17.946Z,99195.28
2022-08-23T20:43:46.653Z,99194.94
2022-08-23T20:46:13.608Z,99193.84
2022-08-23T20:48:40.161Z,99196.66
2022-08-23T20:51:07.001Z,99200.03
2022-08-23T20:53:34.375Z,99198.75
2022-08-23T20:56:01.234Z,99191.50
2022-08-23T20:58:28.248Z,99194.69
2022-08-23T21:00:55.009Z,99197.13
2022-08-23T21:03:21.521Z,99190.41
2022-08-23T21:05:48.219Z,99202.78
2022-08-23T21:08:16.059Z,99200.66
2022-08-23T21:10:44.911Z,99194.34
2022-08-23T21:13:11.974Z,99206.72
2022-08-23T21:15:38.478Z,99200.38
2022-08-23T21:18:04.940Z,99210.59
2022-08-23T21:20:31.451Z,99203.44
2022-08-23T21:22:57.882Z,99199.63
2022-08-23T21:25:24.553Z,99206.94
2022-08-23T21:27:50.992Z,99202.69
2022-08-23T21:30:17.625Z,99213.16
2022-08-23T21:32:44.185Z,99219.94
2022-08-23T21:35:11.347Z,99219.81
2022-08-23T21:37:38.148Z,99225.75
2022-08-23T21:40:04.992Z,99222.97
2022-08-23T21:42:31.495Z,99231.25
2022-08-23T21:44:57.923Z,99232.16
2022-08-23T21:47:24.441Z,99228.31
2022-08-23T21:49:50.894Z,99237.03
2022-08-23T21:52:17.322Z,99233.06
2022-08-23T21:54:43.931Z,99231.53
2022-08-23T21:57:10.981Z,99231.91
2022-08-23T21:59:37.405Z,99220.66
2022-08-23T22:02:04.064Z,99228.25
2022-08-23T22:04:30.570Z,99236.56
2022-08-23T22:07:00.014Z,99233.44
2022-08-23T22:09:31.258Z,99233.31
2022-08-23T22:11:59.761Z,99240.22
2022-08-23T22:14:31.547Z,99239.09
2022-08-23T22:16:58.276Z,99239.78
2022-08-23T22:19:24.825Z,99231.25
2022-08-23T22:21:52.843Z,99238.16
2022-08-23T22:24:24.654Z,99236.53
2022-08-23T22:26:52.656Z,99237.19
2022-08-23T22:29:19.140Z,99241.41
2022-08-23T22:31:47.662Z,99243.97
2022-08-23T22:34:14.246Z,99245.31
2022-08-23T22:36:41.889Z,99246.00
2022-08-23T22:39:08.483Z,99248.19
2022-08-23T22:41:35.122Z,99249.72
2022-08-23T22:44:02.749Z,99246.88
2022-08-23T22:46:30.427Z,99250.09
2022-08-23T22:48:57.022Z,99251.63
2022-08-23T22:51:24.878Z,99248.09
2022-08-23T22:53:53.484Z,99249.63
2022-08-23T22:56:21.744Z,99246.63
2022-08-23T22:58:49.927Z,99247.94
2022-08-23T23:01:20.935Z,99257.34
2022-08-23T23:03:49.117Z,99255.19
2022-08-23T23:06:17.078Z,99254.00
2022-08-23T23:08:43.691Z,99251.81
2022-08-23T23:11:11.392Z,99251.63
2022-08-23T23:13:38.162Z,99250.13
2022-08-23T23:16:06.757Z,99247.59
2022-08-23T23:18:33.900Z,99253.47
2022-08-23T23:21:01.603Z,99254.63
2022-08-23T23:23:28.832Z,99253.13
2022-08-23T23:25:55.349Z,99257.50
2022-08-23T23:28:21.865Z,99268.53
2022-08-23T23:30:51.330Z,99262.84
2022-08-23T23:33:18.220Z,99259.66
2022-08-23T23:35:44.940Z,99253.78
2022-08-23T23:38:11.397Z,99259.63
2022-08-23T23:40:37.934Z,99253.75
2022-08-23T23:43:04.830Z,99250.41
2022-08-23T23:45:31.584Z,99249.03
2022-08-23T23:47:58.123Z,99246.38
2022-08-23T23:50:25.077Z,99252.22
2022-08-23T23:52:51.718Z,99247.38
2022-08-23T23:55:19.521Z,99255.22
2022-08-23T23:57:46.245Z,99252.03
